sensor_id;sensor_type;location;lat;lon;timestamp;pressure;altitude;pressure_sealevel;temperature;humidity
13968;BME280;39536;52.198;9.920;2023-12-04T00:00:52;101028.16;;;-0.51;100.00
13968;BME280;39536;52.198;9.920;2023-12-04T00:03:19;101033.25;;;-0.51;100.00
13968;BME280;39536;52.198;9.920;2023-12-04T00:05:45;101028.25;;;-0.47;100.00
13968;BME280;39536;52.198;9.920;2023-12-04T00:08:12;101032.59;;;-0.41;100.00
13968;BME280;39536;52.198;9.920;2023-12-04T00:10:38;101027.59;;;-0.36;100.00
13968;BME280;39536;52.198;9.920;2023-12-04T00:13:05;101026.69;;;-0.38;100.00
13968;BME280;39536;52.198;9.920;2023-12-04T00:15:31;101024.13;;;-0.40;100.00
13968;BME280;39536;52.198;9.920;2023-12-04T00:17:59;101018.28;;;-0.34;100.00
13968;BME280;39536;52.198;9.920;2023-12-04T00:20:26;101012.31;;;-0.32;100.00
13968;BME280;39536;52.198;9.920;2023-12-04T00:22:52;101000.34;;;-0.34;100.00
13968;BME280;39536;52.198;9.920;2023-12-04T00:25:19;101005.53;;;-0.30;100.00
13968;BME280;39536;52.198;9.920;2023-12-04T00:27:46;100994.50;;;-0.27;100.00
13968;BME280;39536;52.198;9.920;2023-12-04T00:30:13;100991.91;;;-0.29;100.00
13968;BME280;39536;52.198;9.920;2023-12-04T00:32:39;100985.25;;;-0.19;100.00
13968;BME280;39536;52.198;9.920;2023-12-04T00:35:07;100991.16;;;-0.23;100.00
13968;BME280;39536;52.198;9.920;2023-12-04T00:37:34;100983.53;;;-0.20;100.00
13968;BME280;39536;52.198;9.920;2023-12-04T00:40:04;100974.19;;;-0.18;100.00
13968;BME280;39536;52.198;9.920;2023-12-04T00:42:31;100969.13;;;-0.15;100.00
13968;BME280;39536;52.198;9.920;2023-12-04T00:44:57;100964.81;;;-0.17;100.00
13968;BME280;39536;52.198;9.920;2023-12-04T00:47:24;100968.00;;;-0.29;100.00
13968;BME280;39536;52.198;9.920;2023-12-04T00:49:50;100955.16;;;-0.34;100.00
13968;BME280;39536;52.198;9.920;2023-12-04T00:52:18;100955.16;;;-0.32;100.00
13968;BME280;39536;52.198;9.920;2023-12-04T00:54:45;100950.72;;;-0.41;100.00
13968;BME280;39536;52.198;9.920;2023-12-04T00:57:11;100952.53;;;-0.35;100.00
13968;BME280;39536;52.198;9.920;2023-12-04T00:59:38;100939.69;;;-0.40;100.00
13968;BME280;39536;52.198;9.920;2023-12-04T01:02:06;100927.75;;;-0.39;100.00
13968;BME280;39536;52.198;9.920;2023-12-04T01:04:33;100929.50;;;-0.35;100.00
13968;BME280;39536;52.198;9.920;2023-12-04T01:06:59;100934.78;;;-0.28;100.00
13968;BME280;39536;52.198;9.920;2023-12-04T01:09:27;100927.00;;;-0.32;100.00
13968;BME280;39536;52.198;9.920;2023-12-04T01:11:54;100923.53;;;-0.36;100.00
13968;BME280;39536;52.198;9.920;2023-12-04T01:14:21;100924.56;;;-0.26;100.00
13968;BME280;39536;52.198;9.920;2023-12-04T01:16:47;100925.53;;;-0.19;100.00
13968;BME280;39536;52.198;9.920;2023-12-04T01:19:14;100921.28;;;-0.17;100.00
13968;BME280;39536;52.198;9.920;2023-12-04T01:21:40;100915.22;;;-0.22;100.00
13968;BME280;39536;52.198;9.920;2023-12-04T01:24:07;100912.59;;;-0.27;100.00
13968;BME280;39536;52.198;9.920;2023-12-04T01:26:35;100910.00;;;-0.29;100.00
13968;BME280;39536;52.198;9.920;2023-12-04T01:29:01;100910.91;;;-0.27;100.00
13968;BME280;39536;52.198;9.920;2023-12-04T01:31:28;100912.72;;;-0.21;100.00
13968;BME280;39536;52.198;9.920;2023-12-04T01:33:54;100917.03;;;-0.18;100.00
13968;BME280;39536;52.198;9.920;2023-12-04T01:36:21;100908.56;;;-0.14;100.00
13968;BME280;39536;52.198;9.920;2023-12-04T01:38:47;100903.38;;;-0.17;100.00
13968;BME280;39536;52.198;9.920;2023-12-04T01:41:14;100908.66;;;-0.08;100.00
13968;BME280;39536;52.198;9.920;2023-12-04T01:43:42;100899.22;;;-0.11;100.00
13968;BME280;39536;52.198;9.920;2023-12-04T01:46:09;100899.16;;;-0.15;100.00
13968;BME280;39536;52.198;9.920;2023-12-04T01:48:36;100897.47;;;-0.15;100.00
13968;BME280;39536;52.198;9.920;2023-12-04T01:51:06;100888.97;;;-0.11;100.00
13968;BME280;39536;52.198;9.920;2023-12-04T01:53:35;100891.44;;;-0.17;100.00
13968;BME280;39536;52.198;9.920;2023-12-04T01:56:03;100884.69;;;-0.12;100.00
13968;BME280;39536;52.198;9.920;2023-12-04T01:58:30;100876.06;;;-0.18;100.00
13968;BME280;39536;52.198;9.920;2023-12-04T02:00:58;100865.03;;;-0.14;100.00
13968;BME280;39536;52.198;9.920;2023-12-04T02:03:25;100868.41;;;-0.17;100.00
13968;BME280;39536;52.198;9.920;2023-12-04T02:05:52;100863.97;;;-0.26;100.00
13968;BME280;39536;52.198;9.920;2023-12-04T02:08:18;100858.19;;;-0.15;100.00
13968;BME280;39536;52.198;9.920;2023-12-04T02:10:45;100851.47;;;-0.09;100.00
13968;BME280;39536;52.198;9.920;2023-12-04T02:13:11;100846.41;;;-0.04;100.00
13968;BME280;39536;52.198;9.920;2023-12-04T02:15:38;100847.31;;;-0.01;100.00
13968;BME280;39536;52.198;9.920;2023-12-04T02:18:06;100846.47;;;-0.01;100.00
13968;BME280;39536;52.198;9.920;2023-12-04T02:20:34;100842.97;;;-0.06;100.00
13968;BME280;39536;52.198;9.920;2023-12-04T02:23:00;100831.91;;;-0.04;100.00
13968;BME280;39536;52.198;9.920;2023-12-04T02:25:29;100832.84;;;0.03;100.00
13968;BME280;39536;52.198;9.920;2023-12-04T02:27:57;100832.03;;;0.04;100.00
13968;BME280;39536;52.198;9.920;2023-12-04T02:30:25;100825.31;;;0.11;100.00
13968;BME280;39536;52.198;9.920;2023-12-04T02:32:57;100817.66;;;0.15;100.00
13968;BME280;39536;52.198;9.920;2023-12-04T02:35:27;100822.06;;;0.22;100.00
13968;BME280;39536;52.198;9.920;2023-12-04T02:37:55;100817.78;;;0.23;100.00
13968;BME280;39536;52.198;9.920;2023-12-04T02:40:23;100820.38;;;0.25;100.00
13968;BME280;39536;52.198;9.920;2023-12-04T02:42:52;100822.16;;;0.29;100.00
13968;BME280;39536;52.198;9.920;2023-12-04T02:45:18;100811.09;;;0.33;100.00
13968;BME280;39536;52.198;9.920;2023-12-04T02:47:45;100816.25;;;0.37;100.00
13968;BME280;39536;52.198;9.920;2023-12-04T02:50:11;100800.03;;;0.37;100.00
13968;BME280;39536;52.198;9.920;2023-12-04T02:52:38;100802.50;;;0.29;100.00
13968;BME280;39536;52.198;9.920;2023-12-04T02:55:05;100793.03;;;0.23;100.00
13968;BME280;39536;52.198;9.920;2023-12-04T02:57:32;100789.63;;;0.25;100.00
13968;BME280;39536;52.198;9.920;2023-12-04T03:00:00;100778.47;;;0.21;100.00
13968;BME280;39536;52.198;9.920;2023-12-04T03:02:26;100779.41;;;0.28;100.00
13968;BME280;39536;52.198;9.920;2023-12-04T03:04:52;100770.88;;;0.26;100.00
13968;BME280;39536;52.198;9.920;2023-12-04T03:07:19;100764.00;;;0.25;100.00
13968;BME280;39536;52.198;9.920;2023-12-04T03:09:46;100759.72;;;0.23;100.00
13968;BME280;39536;52.198;9.920;2023-12-04T03:12:13;100759.72;;;0.23;100.00
13968;BME280;39536;52.198;9.920;2023-12-04T03:14:39;100751.19;;;0.23;100.00
13968;BME280;39536;52.198;9.920;2023-12-04T03:17:07;100747.84;;;0.30;100.00
13968;BME280;39536;52.198;9.920;2023-12-04T03:19:34;100753.06;;;0.35;100.00
13968;BME280;39536;52.198;9.920;2023-12-04T03:22:01;100751.31;;;0.32;100.00
13968;BME280;39536;52.198;9.920;2023-12-04T03:24:27;100760.75;;;0.35;100.00
13968;BME280;39536;52.198;9.920;2023-12-04T03:26:54;100752.16;;;0.34;100.00
13968;BME280;39536;52.198;9.920;2023-12-04T03:29:20;100753.91;;;0.37;100.00
13968;BME280;39536;52.198;9.920;2023-12-04T03:31:47;100753.94;;;0.40;100.00
13968;BME280;39536;52.198;9.920;2023-12-04T03:34:15;100756.34;;;0.26;100.00
13968;BME280;39536;52.198;9.920;2023-12-04T03:36:41;100743.69;;;0.38;100.00
13968;BME280;39536;52.198;9.920;2023-12-04T03:39:08;100741.13;;;0.40;100.00
13968;BME280;39536;52.198;9.920;2023-12-04T03:41:34;100741.13;;;0.40;100.00
13968;BME280;39536;52.198;9.920;2023-12-04T03:44:01;100737.84;;;0.47;100.00
13968;BME280;39536;52.198;9.920;2023-12-04T03:46:27;100736.19;;;0.54;100.00
13968;BME280;39536;52.198;9.920;2023-12-04T03:48:54;100729.41;;;0.59;100.00
13968;BME280;39536;52.198;9.920;2023-12-04T03:51:22;100730.25;;;0.58;100.00
13968;BME280;39536;52.198;9.920;2023-12-04T03:53:49;100708.06;;;0.60;100.00
13968;BME280;39536;52.198;9.920;2023-12-04T03:56:15;100704.69;;;0.62;100.00
13968;BME280;39536;52.198;9.920;2023-12-04T03:58:42;100708.06;;;0.61;100.00
13968;BME280;39536;52.198;9.920;2023-12-04T04:01:08;100707.31;;;0.72;100.00
13968;BME280;39536;52.198;9.920;2023-12-04T04:03:35;100698.78;;;0.69;100.00
13968;BME280;39536;52.198;9.920;2023-12-04T04:06:02;100692.75;;;0.66;100.00
13968;BME280;39536;52.198;9.920;2023-12-04T04:08:30;100697.88;;;0.67;100.00
13968;BME280;39536;52.198;9.920;2023-12-04T04:10:56;100691.13;;;0.74;100.00
13968;BME280;39536;52.198;9.920;2023-12-04T04:13:23;100683.41;;;0.74;100.00
13968;BME280;39536;52.198;9.920;2023-12-04T04:15:49;100686.06;;;0.82;100.00
13968;BME280;39536;52.198;9.920;2023-12-04T04:18:16;100665.56;;;0.83;100.00
13968;BME280;39536;52.198;9.920;2023-12-04T04:20:42;100665.56;;;0.82;100.00
13968;BME280;39536;52.198;9.920;2023-12-04T04:23:09;100656.09;;;0.73;100.00
13968;BME280;39536;52.198;9.920;2023-12-04T04:25:37;100650.94;;;0.75;100.00
13968;BME280;39536;52.198;9.920;2023-12-04T04:28:03;100650.06;;;0.71;100.00
13968;BME280;39536;52.198;9.920;2023-12-04T04:30:29;100652.66;;;0.73;100.00
13968;BME280;39536;52.198;9.920;2023-12-04T04:32:56;100651.81;;;0.74;100.00
13968;BME280;39536;52.198;9.920;2023-12-04T04:35:23;100652.59;;;0.66;100.00
13968;BME280;39536;52.198;9.920;2023-12-04T04:37:49;100657.75;;;0.71;100.00
13968;BME280;39536;52.198;9.920;2023-12-04T04:40:16;100654.41;;;0.77;100.00
13968;BME280;39536;52.198;9.920;2023-12-04T04:42:44;100648.41;;;0.76;100.00
13968;BME280;39536;52.198;9.920;2023-12-04T04:45:10;100644.06;;;0.67;100.00
13968;BME280;39536;52.198;9.920;2023-12-04T04:47:37;100639.84;;;0.73;100.00
13968;BME280;39536;52.198;9.920;2023-12-04T04:50:04;100637.19;;;0.65;100.00
13968;BME280;39536;52.198;9.920;2023-12-04T04:52:31;100629.53;;;0.68;100.00
13968;BME280;39536;52.198;9.920;2023-12-04T04:54:57;100622.69;;;0.65;100.00
13968;BME280;39536;52.198;9.920;2023-12-04T04:57:24;100614.19;;;0.69;100.00
13968;BME280;39536;52.198;9.920;2023-12-04T04:59:52;100619.22;;;0.60;100.00
13968;BME280;39536;52.198;9.920;2023-12-04T05:02:18;100615.78;;;0.58;100.00
13968;BME280;39536;52.198;9.920;2023-12-04T05:04:45;100619.25;;;0.63;100.00
13968;BME280;39536;52.198;9.920;2023-12-04T05:07:11;100610.69;;;0.61;100.00
13968;BME280;39536;52.198;9.920;2023-12-04T05:09:38;100610.72;;;0.67;100.00
13968;BME280;39536;52.198;9.920;2023-12-04T05:12:05;100609.91;;;0.70;100.00
13968;BME280;39536;52.198;9.920;2023-12-04T05:14:32;100609.06;;;0.71;100.00
13968;BME280;39536;52.198;9.920;2023-12-04T05:17:00;100602.16;;;0.62;100.00
13968;BME280;39536;52.198;9.920;2023-12-04T05:19:26;100596.25;;;0.69;100.00
13968;BME280;39536;52.198;9.920;2023-12-04T05:21:53;100614.25;;;0.76;100.00
13968;BME280;39536;52.198;9.920;2023-12-04T05:24:19;100608.22;;;0.72;100.00
13968;BME280;39536;52.198;9.920;2023-12-04T05:26:46;100619.31;;;0.69;100.00
13968;BME280;39536;52.198;9.920;2023-12-04T05:29:13;100618.47;;;0.74;100.00
13968;BME280;39536;52.198;9.920;2023-12-04T05:31:39;100617.56;;;0.68;100.00
13968;BME280;39536;52.198;9.920;2023-12-04T05:34:07;100614.13;;;0.65;100.00
13968;BME280;39536;52.198;9.920;2023-12-04T05:36:33;100613.16;;;0.52;100.00
13968;BME280;39536;52.198;9.920;2023-12-04T05:39:00;100611.50;;;0.57;100.00
13968;BME280;39536;52.198;9.920;2023-12-04T05:41:26;100604.53;;;0.41;100.00
13968;BME280;39536;52.198;9.920;2023-12-04T05:43:53;100613.91;;;0.43;100.00
13968;BME280;39536;52.198;9.920;2023-12-04T05:46:19;100607.13;;;0.44;100.00
13968;BME280;39536;52.198;9.920;2023-12-04T05:48:46;100603.69;;;0.46;100.00
13968;BME280;39536;52.198;9.920;2023-12-04T05:51:14;100601.19;;;0.51;100.00
13968;BME280;39536;52.198;9.920;2023-12-04T05:53:40;100600.41;;;0.57;100.00
13968;BME280;39536;52.198;9.920;2023-12-04T05:56:08;100591.91;;;0.62;100.00
13968;BME280;39536;52.198;9.920;2023-12-04T05:58:35;100594.38;;;0.55;100.00
13968;BME280;39536;52.198;9.920;2023-12-04T06:01:02;100593.53;;;0.54;100.00
13968;BME280;39536;52.198;9.920;2023-12-04T06:03:28;100587.47;;;0.46;100.00
13968;BME280;39536;52.198;9.920;2023-12-04T06:05:55;100591.84;;;0.56;100.00
13968;BME280;39536;52.198;9.920;2023-12-04T06:08:23;100590.06;;;0.49;100.00
13968;BME280;39536;52.198;9.920;2023-12-04T06:10:49;100582.44;;;0.55;100.00
13968;BME280;39536;52.198;9.920;2023-12-04T06:13:16;100579.06;;;0.59;100.00
13968;BME280;39536;52.198;9.920;2023-12-04T06:15:43;100573.91;;;0.56;100.00
13968;BME280;39536;52.198;9.920;2023-12-04T06:18:09;100574.72;;;0.52;100.00
13968;BME280;39536;52.198;9.920;2023-12-04T06:20:36;100564.47;;;0.52;100.00
13968;BME280;39536;52.198;9.920;2023-12-04T06:23:03;100570.38;;;0.46;100.00
13968;BME280;39536;52.198;9.920;2023-12-04T06:25:31;100567.91;;;0.56;100.00
13968;BME280;39536;52.198;9.920;2023-12-04T06:27:58;100569.66;;;0.58;100.00
13968;BME280;39536;52.198;9.920;2023-12-04T06:30:25;100562.84;;;0.62;100.00
13968;BME280;39536;52.198;9.920;2023-12-04T06:32:52;100563.63;;;0.55;100.00
13968;BME280;39536;52.198;9.920;2023-12-04T06:35:19;100564.56;;;0.64;100.00
13968;BME280;39536;52.198;9.920;2023-12-04T06:37:48;100565.31;;;0.51;100.00
13968;BME280;39536;52.198;9.920;2023-12-04T06:40:15;100563.69;;;0.59;100.00
13968;BME280;39536;52.198;9.920;2023-12-04T06:42:44;100567.91;;;0.56;100.00
13968;BME280;39536;52.198;9.920;2023-12-04T06:45:11;100564.53;;;0.60;100.00
13968;BME280;39536;52.198;9.920;2023-12-04T06:47:40;100562.75;;;0.51;100.00
13968;BME280;39536;52.198;9.920;2023-12-04T06:50:07;100561.13;;;0.59;100.00
13968;BME280;39536;52.198;9.920;2023-12-04T06:52:34;100559.41;;;0.61;100.00
13968;BME280;39536;52.198;9.920;2023-12-04T06:55:00;100558.63;;;0.68;100.00
13968;BME280;39536;52.198;9.920;2023-12-04T06:57:27;100556.09;;;0.75;100.00
13968;BME280;39536;52.198;9.920;2023-12-04T06:59:55;100563.75;;;0.70;100.00
13968;BME280;39536;52.198;9.920;2023-12-04T07:02:21;100565.44;;;0.66;100.00
13968;BME280;39536;52.198;9.920;2023-12-04T07:04:48;100569.72;;;0.67;100.00
13968;BME280;39536;52.198;9.920;2023-12-04T07:07:14;100572.38;;;0.78;100.00
13968;BME280;39536;52.198;9.920;2023-12-04T07:09:41;100569.78;;;0.77;100.00
13968;BME280;39536;52.198;9.920;2023-12-04T07:12:08;100575.81;;;0.80;100.00
13968;BME280;39536;52.198;9.920;2023-12-04T07:14:34;100573.19;;;0.74;100.00
13968;BME280;39536;52.198;9.920;2023-12-04T07:17:02;100574.94;;;0.77;100.00
13968;BME280;39536;52.198;9.920;2023-12-04T07:19:29;100572.25;;;0.63;100.00
13968;BME280;39536;52.198;9.920;2023-12-04T07:21:56;100578.22;;;0.62;100.00
13968;BME280;39536;52.198;9.920;2023-12-04T07:24:22;100579.09;;;0.64;100.00
13968;BME280;39536;52.198;9.920;2023-12-04T07:26:49;100585.13;;;0.71;100.00
13968;BME280;39536;52.198;9.920;2023-12-04T07:29:15;100584.25;;;0.68;100.00
13968;BME280;39536;52.198;9.920;2023-12-04T07:31:42;100587.75;;;0.75;100.00
13968;BME280;39536;52.198;9.920;2023-12-04T07:34:10;100581.78;;;0.79;100.00
13968;BME280;39536;52.198;9.920;2023-12-04T07:36:37;100592.91;;;0.81;100.00
13968;BME280;39536;52.198;9.920;2023-12-04T07:39:03;100578.38;;;0.83;100.00
13968;BME280;39536;52.198;9.920;2023-12-04T07:41:31;100585.22;;;0.78;100.00
13968;BME280;39536;52.198;9.920;2023-12-04T07:43:58;100578.31;;;0.74;100.00
13968;BME280;39536;52.198;9.920;2023-12-04T07:46:24;100581.72;;;0.75;100.00
13968;BME280;39536;52.198;9.920;2023-12-04T07:48:51;100576.69;;;0.82;100.00
13968;BME280;39536;52.198;9.920;2023-12-04T07:51:19;100577.50;;;0.77;100.00
13968;BME280;39536;52.198;9.920;2023-12-04T07:53:46;100574.06;;;0.78;100.00
13968;BME280;39536;52.198;9.920;2023-12-04T07:56:13;100574.03;;;0.73;100.00
13968;BME280;39536;52.198;9.920;2023-12-04T07:58:39;100562.84;;;0.60;100.00
13968;BME280;39536;52.198;9.920;2023-12-04T08:01:07;100568.81;;;0.61;100.00
13968;BME280;39536;52.198;9.920;2023-12-04T08:03:33;100562.81;;;0.59;100.00
13968;BME280;39536;52.198;9.920;2023-12-04T08:06:00;100566.28;;;0.62;100.00
13968;BME280;39536;52.198;9.920;2023-12-04T08:08:28;100560.28;;;0.65;100.00
13968;BME280;39536;52.198;9.920;2023-12-04T08:10:54;100559.38;;;0.55;100.00
13968;BME280;39536;52.198;9.920;2023-12-04T08:13:21;100556.84;;;0.60;100.00
13968;BME280;39536;52.198;9.920;2023-12-04T08:15:47;100556.88;;;0.64;100.00
13968;BME280;39536;52.198;9.920;2023-12-04T08:18:14;100566.34;;;0.70;100.00
13968;BME280;39536;52.198;9.920;2023-12-04T08:20:41;100563.75;;;0.72;100.00
13968;BME280;39536;52.198;9.920;2023-12-04T08:23:08;100553.53;;;0.73;100.00
13968;BME280;39536;52.198;9.920;2023-12-04T08:25:36;100557.81;;;0.73;100.00
13968;BME280;39536;52.198;9.920;2023-12-04T08:28:04;100555.16;;;0.65;100.00
13968;BME280;39536;52.198;9.920;2023-12-04T08:30:31;100551.88;;;0.78;100.00
13968;BME280;39536;52.198;9.920;2023-12-04T08:32:57;100554.47;;;0.86;100.00
13968;BME280;39536;52.198;9.920;2023-12-04T08:35:24;100547.72;;;0.96;100.00
13968;BME280;39536;52.198;9.920;2023-12-04T08:37:50;100549.47;;;1.01;100.00
13968;BME280;39536;52.198;9.920;2023-12-04T08:40:17;100539.25;;;1.07;100.00
13968;BME280;39536;52.198;9.920;2023-12-04T08:42:45;100540.97;;;1.11;100.00
13968;BME280;39536;52.198;9.920;2023-12-04T08:45:12;100538.41;;;1.14;100.00
13968;BME280;39536;52.198;9.920;2023-12-04T08:47:39;100532.50;;;1.22;100.00
13968;BME280;39536;52.198;9.920;2023-12-04T08:50:06;100533.34;;;1.24;100.00
13968;BME280;39536;52.198;9.920;2023-12-04T08:52:34;100525.66;;;1.25;100.00
13968;BME280;39536;52.198;9.920;2023-12-04T08:55:01;100530.00;;;1.38;100.00
13968;BME280;39536;52.198;9.920;2023-12-04T08:57:27;100525.78;;;1.47;100.00
13968;BME280;39536;52.198;9.920;2023-12-04T08:59:55;100522.34;;;1.48;100.00
13968;BME280;39536;52.198;9.920;2023-12-04T09:02:22;100519.75;;;1.46;100.00
13968;BME280;39536;52.198;9.920;2023-12-04T09:04:48;100524.03;;;1.41;100.00
13968;BME280;39536;52.198;9.920;2023-12-04T09:07:15;100518.88;;;1.39;100.00
13968;BME280;39536;52.198;9.920;2023-12-04T09:09:42;100521.44;;;1.38;100.00
13968;BME280;39536;52.198;9.920;2023-12-04T09:12:09;100512.91;;;1.45;100.00
13968;BME280;39536;52.198;9.920;2023-12-04T09:14:37;100515.53;;;1.57;100.00
13968;BME280;39536;52.198;9.920;2023-12-04T09:17:05;100509.59;;;1.74;100.00
13968;BME280;39536;52.198;9.920;2023-12-04T09:19:33;100513.06;;;1.91;100.00
13968;BME280;39536;52.198;9.920;2023-12-04T09:21:59;100510.53;;;1.97;100.00
13968;BME280;39536;52.198;9.920;2023-12-04T09:24:26;100506.25;;;2.12;100.00
13968;BME280;39536;52.198;9.920;2023-12-04T09:26:54;100511.41;;;2.27;100.00
13968;BME280;39536;52.198;9.920;2023-12-04T09:29:20;100504.56;;;2.38;100.00
13968;BME280;39536;52.198;9.920;2023-12-04T09:31:50;100507.13;;;2.37;100.00
13968;BME280;39536;52.198;9.920;2023-12-04T09:34:17;100512.28;;;2.38;100.00
13968;BME280;39536;52.198;9.920;2023-12-04T09:36:45;100513.97;;;2.42;100.00
13968;BME280;39536;52.198;9.920;2023-12-04T09:39:12;100509.69;;;2.29;100.00
13968;BME280;39536;52.198;9.920;2023-12-04T09:41:39;100506.25;;;2.24;100.00
13968;BME280;39536;52.198;9.920;2023-12-04T09:44:08;100502.84;;;2.22;100.00
13968;BME280;39536;52.198;9.920;2023-12-04T09:46:34;100499.44;;;2.27;100.00
13968;BME280;39536;52.198;9.920;2023-12-04T09:49:01;100493.41;;;2.39;100.00
13968;BME280;39536;52.198;9.920;2023-12-04T09:51:30;100483.16;;;2.47;100.00
13968;BME280;39536;52.198;9.920;2023-12-04T09:54:00;100484.00;;;2.49;100.00
13968;BME280;39536;52.198;9.920;2023-12-04T09:56:28;100490.00;;;2.52;100.00
13968;BME280;39536;52.198;9.920;2023-12-04T09:58:58;100470.28;;;2.50;100.00
13968;BME280;39536;52.198;9.920;2023-12-04T10:01:25;100478.84;;;2.64;100.00
13968;BME280;39536;52.198;9.920;2023-12-04T10:03:52;100477.13;;;2.66;100.00
13968;BME280;39536;52.198;9.920;2023-12-04T10:06:19;100473.72;;;2.57;100.00
13968;BME280;39536;52.198;9.920;2023-12-04T10:08:47;100466.88;;;2.56;100.00
13968;BME280;39536;52.198;9.920;2023-12-04T10:11:14;100465.13;;;2.54;100.00
13968;BME280;39536;52.198;9.920;2023-12-04T10:13:41;100464.31;;;2.52;100.00
13968;BME280;39536;52.198;9.920;2023-12-04T10:16:08;100452.28;;;2.42;100.00
13968;BME280;39536;52.198;9.920;2023-12-04T10:18:34;100454.03;;;2.40;100.00
13968;BME280;39536;52.198;9.920;2023-12-04T10:21:01;100452.31;;;2.47;100.00
13968;BME280;39536;52.198;9.920;2023-12-04T10:23:39;100440.28;;;2.53;100.00
13968;BME280;39536;52.198;9.920;2023-12-04T10:26:08;100432.59;;;2.35;100.00
13968;BME280;39536;52.198;9.920;2023-12-04T10:28:35;100430.00;;;2.40;100.00
13968;BME280;39536;52.198;9.920;2023-12-04T10:31:02;100431.72;;;2.45;100.00
13968;BME280;39536;52.198;9.920;2023-12-04T10:33:32;100419.75;;;2.38;100.00
13968;BME280;39536;52.198;9.920;2023-12-04T10:35:59;100428.31;;;2.31;100.00
13968;BME280;39536;52.198;9.920;2023-12-04T10:38:28;100422.31;;;2.34;100.00
13968;BME280;39536;52.198;9.920;2023-12-04T10:40:54;100412.91;;;2.28;100.00
13968;BME280;39536;52.198;9.920;2023-12-04T10:43:23;100418.88;;;2.44;100.00
13968;BME280;39536;52.198;9.920;2023-12-04T10:45:50;100414.56;;;2.57;100.00
13968;BME280;39536;52.198;9.920;2023-12-04T10:48:18;100412.88;;;2.62;100.00
13968;BME280;39536;52.198;9.920;2023-12-04T10:50:47;100413.69;;;2.71;100.00
13968;BME280;39536;52.198;9.920;2023-12-04T10:53:15;100407.66;;;2.80;100.00
13968;BME280;39536;52.198;9.920;2023-12-04T10:55:42;100410.22;;;2.83;100.00
13968;BME280;39536;52.198;9.920;2023-12-04T10:58:10;100410.22;;;2.88;100.00
13968;BME280;39536;52.198;9.920;2023-12-04T11:00:40;100395.66;;;2.84;100.00
13968;BME280;39536;52.198;9.920;2023-12-04T11:03:08;100400.81;;;2.76;100.00
13968;BME280;39536;52.198;9.920;2023-12-04T11:05:38;100399.09;;;2.76;100.00
13968;BME280;39536;52.198;9.920;2023-12-04T11:08:06;100387.97;;;2.74;100.00
13968;BME280;39536;52.198;9.920;2023-12-04T11:10:37;100383.69;;;2.69;100.00
13968;BME280;39536;52.198;9.920;2023-12-04T11:13:10;100382.84;;;2.67;100.00
13968;BME280;39536;52.198;9.920;2023-12-04T11:15:41;100381.13;;;2.69;100.00
13968;BME280;39536;52.198;9.920;2023-12-04T11:18:13;100375.09;;;2.70;100.00
13968;BME280;39536;52.198;9.920;2023-12-04T11:20:44;100368.28;;;2.66;100.00
13968;BME280;39536;52.198;9.920;2023-12-04T11:23:13;100368.25;;;2.64;100.00
13968;BME280;39536;52.198;9.920;2023-12-04T11:25:41;100356.28;;;2.63;100.00
13968;BME280;39536;52.198;9.920;2023-12-04T11:28:08;100363.09;;;2.73;100.00
13968;BME280;39536;52.198;9.920;2023-12-04T11:30:36;100358.78;;;2.82;100.00
13968;BME280;39536;52.198;9.920;2023-12-04T11:33:04;100357.03;;;2.91;100.00
13968;BME280;39536;52.198;9.920;2023-12-04T11:35:33;100347.53;;;3.04;100.00
13968;BME280;39536;52.198;9.920;2023-12-04T11:38:00;100338.97;;;3.02;100.00
13968;BME280;39536;52.198;9.920;2023-12-04T11:40:27;100337.25;;;3.06;100.00
13968;BME280;39536;52.198;9.920;2023-12-04T11:42:53;100330.31;;;3.18;100.00
13968;BME280;39536;52.198;9.920;2023-12-04T11:45:20;100327.75;;;3.18;100.00
13968;BME280;39536;52.198;9.920;2023-12-04T11:47:51;100326.88;;;3.21;100.00
13968;BME280;39536;52.198;9.920;2023-12-04T11:50:20;100330.22;;;3.29;100.00
13968;BME280;39536;52.198;9.920;2023-12-04T11:52:47;100317.31;;;3.38;100.00
13968;BME280;39536;52.198;9.920;2023-12-04T11:55:16;100320.78;;;3.34;100.00
13968;BME280;39536;52.198;9.920;2023-12-04T11:57:43;100317.31;;;3.38;100.00
13968;BME280;39536;52.198;9.920;2023-12-04T12:00:13;100328.44;;;3.42;100.00
13968;BME280;39536;52.198;9.920;2023-12-04T12:02:47;100317.31;;;3.38;100.00
13968;BME280;39536;52.198;9.920;2023-12-04T12:05:14;100315.59;;;3.40;100.00
13968;BME280;39536;52.198;9.920;2023-12-04T12:07:43;100307.84;;;3.43;100.00
13968;BME280;39536;52.198;9.920;2023-12-04T12:10:11;100306.06;;;3.48;100.00
13968;BME280;39536;52.198;9.920;2023-12-04T12:12:39;100306.97;;;3.46;100.00
13968;BME280;39536;52.198;9.920;2023-12-04T12:15:08;100296.63;;;3.52;100.00
13968;BME280;39536;52.198;9.920;2023-12-04T12:17:35;100300.03;;;3.51;100.00
13968;BME280;39536;52.198;9.920;2023-12-04T12:20:02;100297.47;;;3.56;100.00
13968;BME280;39536;52.198;9.920;2023-12-04T12:22:32;100294.94;;;3.50;100.00
13968;BME280;39536;52.198;9.920;2023-12-04T12:25:00;100285.44;;;3.56;100.00
13968;BME280;39536;52.198;9.920;2023-12-04T12:27:27;100281.25;;;3.43;100.00
13968;BME280;39536;52.198;9.920;2023-12-04T12:29:53;100270.13;;;3.33;100.00
13968;BME280;39536;52.198;9.920;2023-12-04T12:32:20;100275.34;;;3.29;100.00
13968;BME280;39536;52.198;9.920;2023-12-04T12:34:47;100260.00;;;3.13;100.00
13968;BME280;39536;52.198;9.920;2023-12-04T12:37:13;100264.28;;;3.13;100.00
13968;BME280;39536;52.198;9.920;2023-12-04T12:39:41;100261.78;;;3.04;100.00
13968;BME280;39536;52.198;9.920;2023-12-04T12:42:09;100252.38;;;2.99;100.00
13968;BME280;39536;52.198;9.920;2023-12-04T12:44:37;100248.06;;;3.03;100.00
13968;BME280;39536;52.198;9.920;2023-12-04T12:47:05;100253.16;;;3.08;100.00